createdAt,value
2022-11-05T00:02:17.602Z,85.66
2022-11-05T00:05:38.242Z,85.71
2022-11-05T00:09:00.231Z,85.50
2022-11-05T00:12:25.338Z,85.43
2022-11-05T00:15:46.132Z,85.21
2022-11-05T00:19:06.695Z,85.36
2022-11-05T00:22:27.259Z,85.52
2022-11-05T00:25:30.509Z,85.35
2022-11-05T00:28:33.368Z,85.55
2022-11-05T00:31:35.309Z,85.45
2022-11-05T00:34:38.168Z,85.44
2022-11-05T00:37:42.325Z,85.53
2022-11-05T00:40:46.536Z,85.50
2022-11-05T00:44:07.031Z,85.72
2022-11-05T00:47:27.170Z,85.51
2022-11-05T00:50:29.339Z,85.79
2022-11-05T00:53:31.133Z,85.76
2022-11-05T00:56:32.969Z,85.80
2022-11-05T00:59:34.781Z,85.85
2022-11-05T01:02:36.780Z,85.64
2022-11-05T01:05:44.964Z,85.66
2022-11-05T01:08:47.203Z,85.94
2022-11-05T01:11:49.457Z,85.75
2022-11-05T01:14:51.379Z,85.89
2022-11-05T01:17:53.327Z,85.78
2022-11-05T01:20:55.186Z,85.85
2022-11-05T01:23:57.219Z,85.65
2022-11-05T01:26:59.030Z,85.68
2022-11-05T01:30:00.994Z,85.64
2022-11-05T01:33:03.594Z,85.80
2022-11-05T01:36:05.686Z,85.93
2022-11-05T01:39:07.512Z,85.91
2022-11-05T01:42:19.505Z,85.93
2022-11-05T01:45:25.382Z,85.91
2022-11-05T01:48:32.533Z,86.09
2022-11-05T01:51:34.883Z,86.04
2022-11-05T01:54:36.787Z,86.19
2022-11-05T01:57:38.794Z,86.34
2022-11-05T02:00:42.353Z,86.23
2022-11-05T02:03:46.446Z,86.24
2022-11-05T02:06:48.295Z,86.40
2022-11-05T02:10:00.171Z,86.48
2022-11-05T02:13:03.763Z,86.40
2022-11-05T02:16:23.819Z,86.36
2022-11-05T02:19:44.110Z,86.55
2022-11-05T02:23:07.278Z,86.56
2022-11-05T02:26:33.728Z,86.68
2022-11-05T02:29:44.694Z,86.51
2022-11-05T02:33:18.606Z,86.49
2022-11-05T02:36:46.614Z,86.90
2022-11-05T02:40:01.102Z,86.64
2022-11-05T02:43:24.093Z,86.75
2022-11-05T02:46:32.299Z,86.90
2022-11-05T02:50:01.831Z,86.79
2022-11-05T02:53:12.704Z,86.83
2022-11-05T02:56:22.263Z,86.86
2022-11-05T02:59:24.087Z,86.84
2022-11-05T03:02:26.040Z,86.84
2022-11-05T03:05:40.926Z,86.86
2022-11-05T03:09:00.698Z,86.70
2022-11-05T03:12:32.963Z,86.82
2022-11-05T03:15:46.693Z,86.70
2022-11-05T03:19:02.490Z,86.71
2022-11-05T03:22:23.727Z,86.76
2022-11-05T03:25:29.241Z,86.64
2022-11-05T03:28:35.698Z,86.75
2022-11-05T03:31:41.102Z,87.16
2022-11-05T03:34:47.751Z,87.27
2022-11-05T03:37:54.571Z,87.58
2022-11-05T03:41:00.184Z,87.54
2022-11-05T03:44:06.671Z,87.54
2022-11-05T03:47:17.114Z,87.96
2022-11-05T03:50:28.966Z,87.89
2022-11-05T03:53:37.095Z,87.77
2022-11-05T03:56:58.782Z,87.74
2022-11-05T04:00:00.677Z,87.70
2022-11-05T04:03:02.705Z,87.51
2022-11-05T04:06:25.422Z,87.63
2022-11-05T04:09:46.071Z,87.43
2022-11-05T04:13:06.273Z,87.54
2022-11-05T04:16:27.071Z,87.62
2022-11-05T04:19:47.258Z,88.02
2022-11-05T04:23:08.074Z,88.05
2022-11-05T04:26:10.103Z,88.05
2022-11-05T04:29:31.149Z,87.93
2022-11-05T04:32:33.829Z,88.23
2022-11-05T04:35:38.274Z,88.08
2022-11-05T04:38:41.086Z,88.23
2022-11-05T04:41:43.059Z,88.18
2022-11-05T04:44:44.989Z,88.19
2022-11-05T04:47:46.835Z,88.09
2022-11-05T04:50:48.663Z,88.25
2022-11-05T04:53:50.525Z,88.42
2022-11-05T04:56:52.401Z,88.81
2022-11-05T04:59:55.215Z,88.92
2022-11-05T05:02:57.102Z,89.22
2022-11-05T05:06:03.808Z,88.92
2022-11-05T05:09:06.077Z,88.97
2022-11-05T05:12:08.160Z,89.11
2022-11-05T05:15:10.061Z,89.75
2022-11-05T05:18:11.863Z,89.13
2022-11-05T05:21:33.974Z,89.37
2022-11-05T05:24:35.759Z,88.92
2022-11-05T05:27:37.572Z,89.10
2022-11-05T05:30:39.420Z,88.84
2022-11-05T05:33:41.302Z,88.88
2022-11-05T05:36:43.193Z,88.70
2022-11-05T05:39:48.799Z,88.26
2022-11-05T05:42:55.654Z,88.58
2022-11-05T05:45:57.837Z,88.47
2022-11-05T05:48:59.859Z,88.23
2022-11-05T05:52:01.964Z,87.83
2022-11-05T05:55:04.002Z,87.58
2022-11-05T05:58:05.855Z,87.65
2022-11-05T06:01:17.211Z,87.72
2022-11-05T06:04:20.815Z,87.99
2022-11-05T06:07:23.146Z,87.55
2022-11-05T06:10:25.681Z,87.27
2022-11-05T06:13:28.116Z,87.26
2022-11-05T06:16:35.819Z,86.90
2022-11-05T06:19:37.621Z,86.60
2022-11-05T06:22:39.766Z,86.65
2022-11-05T06:25:41.691Z,86.32
2022-11-05T06:28:43.883Z,86.35
2022-11-05T06:31:45.701Z,86.22
2022-11-05T06:34:47.584Z,86.65
2022-11-05T06:37:49.467Z,86.47
2022-11-05T06:40:51.297Z,86.67
2022-11-05T06:43:53.163Z,86.15
2022-11-05T06:46:54.998Z,86.04
2022-11-05T06:49:57.527Z,86.27
2022-11-05T06:53:01.362Z,85.88
2022-11-05T06:56:07.680Z,86.06
2022-11-05T06:59:09.450Z,85.91
2022-11-05T07:02:13.744Z,85.90
2022-11-05T07:05:16.660Z,86.03
2022-11-05T07:08:18.514Z,85.51
2022-11-05T07:11:20.516Z,85.70
2022-11-05T07:14:22.445Z,85.18
2022-11-05T07:17:24.243Z,85.42
2022-11-05T07:20:32.324Z,85.15
2022-11-05T07:23:35.590Z,84.49
2022-11-05T07:26:37.418Z,84.21
2022-11-05T07:29:39.646Z,83.82
2022-11-05T07:32:41.584Z,83.77
2022-11-05T07:35:43.432Z,82.86
2022-11-05T07:38:45.270Z,83.00
2022-11-05T07:41:47.136Z,82.65
2022-11-05T07:44:49.000Z,82.34
2022-11-05T07:47:52.932Z,82.62
2022-11-05T07:50:54.824Z,82.04
2022-11-05T07:53:56.701Z,82.09
2022-11-05T07:56:58.636Z,81.83
2022-11-05T08:00:00.578Z,81.63
2022-11-05T08:03:07.686Z,80.83
2022-11-05T08:06:09.867Z,80.67
2022-11-05T08:09:11.724Z,80.03
2022-11-05T08:12:13.576Z,79.86
2022-11-05T08:15:15.676Z,79.19
2022-11-05T08:18:18.163Z,79.50
2022-11-05T08:21:20.036Z,79.50
2022-11-05T08:24:21.897Z,79.26
2022-11-05T08:27:23.851Z,79.26
2022-11-05T08:30:26.271Z,79.23
2022-11-05T08:33:31.363Z,79.06
2022-11-05T08:36:35.188Z,79.49
2022-11-05T08:39:37.007Z,79.07
2022-11-05T08:42:38.824Z,79.51
2022-11-05T08:45:41.508Z,79.13
2022-11-05T08:48:44.130Z,78.84
2022-11-05T08:51:46.070Z,78.88
2022-11-05T08:54:47.901Z,78.42
2022-11-05T08:57:59.549Z,79.12
2022-11-05T09:01:05.397Z,78.78
2022-11-05T09:04:07.795Z,79.20
2022-11-05T09:07:09.665Z,79.16
2022-11-05T09:10:11.516Z,79.17
2022-11-05T09:13:18.727Z,79.37
2022-11-05T09:16:26.208Z,78.92
2022-11-05T09:19:28.003Z,79.07
2022-11-05T09:22:30.008Z,79.19
2022-11-05T09:25:32.832Z,79.55
2022-11-05T09:28:34.747Z,79.49
2022-11-05T09:31:36.583Z,79.42
2022-11-05T09:34:38.489Z,79.38
2022-11-05T09:37:40.418Z,79.50
2022-11-05T09:41:01.803Z,79.04
2022-11-05T09:44:13.714Z,79.41
2022-11-05T09:47:26.158Z,79.23
2022-11-05T09:50:36.627Z,79.10
2022-11-05T09:53:41.014Z,78.64
2022-11-05T09:56:43.348Z,78.65
2022-11-05T09:59:48.826Z,78.04
2022-11-05T10:02:57.298Z,77.92
2022-11-05T10:06:07.358Z,77.56
2022-11-05T10:09:25.452Z,77.05
2022-11-05T10:16:18.650Z,77.34
2022-11-05T10:19:36.845Z,77.46
2022-11-05T10:22:41.971Z,77.08
2022-11-05T10:25:51.665Z,76.95
2022-11-05T10:28:55.038Z,77.03
2022-11-05T10:31:58.588Z,76.43
2022-11-05T10:35:04.256Z,75.71
2022-11-05T10:38:06.120Z,75.71
2022-11-05T10:41:40.365Z,75.13
2022-11-05T10:45:02.067Z,75.31
2022-11-05T10:48:27.586Z,75.25
2022-11-05T10:51:31.900Z,75.66
2022-11-05T10:54:35.707Z,75.62
2022-11-05T10:57:40.108Z,74.91
2022-11-05T11:00:59.938Z,75.12
2022-11-05T11:04:23.038Z,74.42
2022-11-05T11:07:28.922Z,74.41
2022-11-05T11:10:37.449Z,74.51
2022-11-05T11:14:10.157Z,74.09
2022-11-05T11:17:27.872Z,73.75
2022-11-05T11:20:33.211Z,73.53
2022-11-05T11:23:41.003Z,73.96
2022-11-05T11:26:42.939Z,73.77
2022-11-05T11:29:52.594Z,73.98
2022-11-05T11:33:03.874Z,73.34
2022-11-05T11:36:06.843Z,73.96
2022-11-05T11:39:14.695Z,73.81
2022-11-05T11:42:26.052Z,73.44
2022-11-05T11:45:43.885Z,73.70
2022-11-05T11:48:50.613Z,73.78
2022-11-05T11:51:59.987Z,73.95
2022-11-05T11:55:23.059Z,73.99
2022-11-05T11:58:38.535Z,73.44
2022-11-05T12:02:02.065Z,74.00
2022-11-05T12:05:16.406Z,73.83
2022-11-05T12:08:41.691Z,74.07
2022-11-05T12:12:05.191Z,73.82
2022-11-05T12:15:20.078Z,73.88
2022-11-05T12:18:33.754Z,73.60
2022-11-05T12:22:30.149Z,72.82
2022-11-05T12:26:18.023Z,72.54
2022-11-05T12:29:53.329Z,72.37
2022-11-05T12:33:36.700Z,71.98
2022-11-05T12:37:20.128Z,72.59
2022-11-05T12:40:34.055Z,72.57
2022-11-05T12:43:41.444Z,72.90
2022-11-05T12:47:09.993Z,72.34
2022-11-05T12:50:24.365Z,72.02
2022-11-05T12:54:05.756Z,72.10
2022-11-05T12:57:11.726Z,71.84
2022-11-05T13:00:13.797Z,71.78
2022-11-05T13:03:15.589Z,72.11
2022-11-05T13:06:22.124Z,71.73
2022-11-05T13:09:54.437Z,71.58
2022-11-05T13:13:07.893Z,71.21
2022-11-05T13:16:22.710Z,70.81
2022-11-05T13:19:47.508Z,69.48
2022-11-05T13:22:55.798Z,69.16
2022-11-05T13:26:15.599Z,69.33
2022-11-05T13:29:32.087Z,68.73
2022-11-05T13:32:45.329Z,68.23
2022-11-05T13:35:47.158Z,68.67
2022-11-05T13:39:10.412Z,68.37
2022-11-05T13:42:16.186Z,68.73
2022-11-05T13:45:50.329Z,68.43
2022-11-05T13:49:01.265Z,68.99
2022-11-05T13:52:27.112Z,68.22
2022-11-05T13:56:01.540Z,68.35
2022-11-05T13:59:43.045Z,67.97
2022-11-05T14:02:51.469Z,68.33
2022-11-05T14:05:59.311Z,68.38
2022-11-05T14:09:04.660Z,68.53
2022-11-05T14:12:16.863Z,68.77
2022-11-05T14:15:23.616Z,68.39
2022-11-05T14:18:25.388Z,68.16
2022-11-05T14:21:27.263Z,68.45
2022-11-05T14:24:43.143Z,68.04
2022-11-05T14:27:47.978Z,68.00
2022-11-05T14:30:49.979Z,68.25
2022-11-05T14:34:03.959Z,68.67
2022-11-05T14:37:11.831Z,68.63
2022-11-05T14:40:26.174Z,68.46
2022-11-05T14:43:31.779Z,67.69
2022-11-05T14:46:45.273Z,67.70
2022-11-05T14:50:11.669Z,67.52
2022-11-05T14:53:36.666Z,67.38
2022-11-05T14:56:56.549Z,67.21
2022-11-05T15:00:00.944Z,67.32
2022-11-05T15:03:27.854Z,67.80
2022-11-05T15:06:32.728Z,67.80
2022-11-05T15:09:42.625Z,67.74
2022-11-05T15:13:03.941Z,67.29
2022-11-05T15:16:07.145Z,67.37
2022-11-05T15:19:25.097Z,67.58
2022-11-05T15:22:35.000Z,67.66
2022-11-05T15:25:50.400Z,68.03
2022-11-05T15:28:56.118Z,68.37
2022-11-05T15:31:58.672Z,68.13
2022-11-05T15:35:00.717Z,68.18
2022-11-05T15:38:02.957Z,67.94
2022-11-05T15:41:27.087Z,68.01
2022-11-05T15:44:38.675Z,68.11
2022-11-05T15:47:46.384Z,68.24
2022-11-05T15:50:48.277Z,68.54
2022-11-05T15:57:27.215Z,68.27
2022-11-05T16:00:33.286Z,68.13
2022-11-05T16:03:38.713Z,68.01
2022-11-05T16:06:42.865Z,68.16
2022-11-05T16:10:01.879Z,68.26
2022-11-05T16:13:23.161Z,68.10
2022-11-05T16:16:33.262Z,68.38
2022-11-05T16:19:40.492Z,68.15
2022-11-05T16:22:48.368Z,68.38
2022-11-05T16:25:51.984Z,68.26
2022-11-05T16:28:54.383Z,68.21
2022-11-05T16:31:58.788Z,68.25
2022-11-05T16:35:03.631Z,68.12
2022-11-05T16:38:06.097Z,68.32
2022-11-05T16:41:20.100Z,68.39
2022-11-05T16:44:21.992Z,68.55
2022-11-05T16:47:26.145Z,68.67
2022-11-05T16:50:31.976Z,68.59
2022-11-05T16:53:33.991Z,68.48
2022-11-05T16:56:36.776Z,68.84
2022-11-05T16:59:38.693Z,68.79
2022-11-05T17:02:43.855Z,69.16
2022-11-05T17:05:46.519Z,69.12
2022-11-05T17:08:48.677Z,69.34
2022-11-05T17:11:50.586Z,69.84
2022-11-05T17:14:52.425Z,69.82
2022-11-05T17:17:55.504Z,70.05
2022-11-05T17:20:57.449Z,69.97
2022-11-05T17:23:59.231Z,70.09
2022-11-05T17:27:01.142Z,70.09
2022-11-05T17:30:03.485Z,70.12
2022-11-05T17:33:05.521Z,70.42
2022-11-05T17:36:09.646Z,70.59
2022-11-05T17:39:11.643Z,70.56
2022-11-05T17:42:13.545Z,70.62
2022-11-05T17:45:15.892Z,70.69
2022-11-05T17:48:19.171Z,70.64
2022-11-05T17:51:21.253Z,70.66
2022-11-05T17:54:23.140Z,71.09
2022-11-05T17:57:25.187Z,70.74
2022-11-05T18:00:29.049Z,70.97
2022-11-05T18:03:31.291Z,70.72
2022-11-05T18:06:33.210Z,70.73
2022-11-05T18:09:34.993Z,71.04
2022-11-05T18:12:37.346Z,70.79
2022-11-05T18:15:41.487Z,70.40
2022-11-05T18:18:43.512Z,70.62
2022-11-05T18:21:46.603Z,70.48
2022-11-05T18:24:48.531Z,70.20
2022-11-05T18:27:50.499Z,70.61
2022-11-05T18:30:52.438Z,70.16
2022-11-05T18:33:59.097Z,70.40
2022-11-05T18:37:00.902Z,70.50
2022-11-05T18:40:02.812Z,70.26
2022-11-05T18:43:06.368Z,70.47
2022-11-05T18:46:08.796Z,70.37
2022-11-05T18:49:13.534Z,70.26
2022-11-05T18:52:15.465Z,70.13
2022-11-05T18:55:17.567Z,70.57
2022-11-05T18:58:19.528Z,70.04
2022-11-05T19:01:24.961Z,70.24
2022-11-05T19:04:27.158Z,70.18
2022-11-05T19:07:31.957Z,70.18
2022-11-05T19:10:34.006Z,69.92
2022-11-05T19:13:36.193Z,70.38
2022-11-05T19:16:38.399Z,70.24
2022-11-05T19:19:40.305Z,70.48
2022-11-05T19:22:42.218Z,70.32
2022-11-05T19:25:44.111Z,70.15
2022-11-05T19:28:46.004Z,70.67
2022-11-05T19:31:48.933Z,70.55
2022-11-05T19:34:50.702Z,70.46
2022-11-05T19:37:54.158Z,70.45
2022-11-05T19:40:55.982Z,70.21
2022-11-05T19:44:01.951Z,70.39
2022-11-05T19:47:05.962Z,70.65
2022-11-05T19:50:08.081Z,70.58
2022-11-05T19:53:10.841Z,70.46
2022-11-05T19:56:16.088Z,70.92
2022-11-05T19:59:18.041Z,70.93
2022-11-05T20:02:20.281Z,71.12
2022-11-05T20:05:22.325Z,71.21
2022-11-05T20:08:24.139Z,71.17
2022-11-05T20:11:26.310Z,71.13
2022-11-05T20:14:28.210Z,70.92
2022-11-05T20:17:30.668Z,71.44
2022-11-05T20:20:33.070Z,71.16
2022-11-05T20:23:36.182Z,71.04
2022-11-05T20:26:38.580Z,70.77
2022-11-05T20:29:40.463Z,71.20
2022-11-05T20:32:42.293Z,70.93
2022-11-05T20:35:44.135Z,70.78
2022-11-05T20:38:50.747Z,71.02
2022-11-05T20:41:53.477Z,71.35
2022-11-05T20:44:55.279Z,71.13
2022-11-05T20:47:57.102Z,71.19
2022-11-05T20:50:59.425Z,71.44
2022-11-05T20:54:01.975Z,71.22
2022-11-05T20:57:04.117Z,71.19
2022-11-05T21:00:07.287Z,71.12
2022-11-05T21:03:09.155Z,71.07
2022-11-05T21:06:12.205Z,71.16
2022-11-05T21:09:14.098Z,70.88
2022-11-05T21:12:15.986Z,70.90
2022-11-05T21:15:22.999Z,71.13
2022-11-05T21:18:32.417Z,70.98
2022-11-05T21:21:37.497Z,71.21
2022-11-05T21:24:43.364Z,71.28
2022-11-05T21:27:45.204Z,71.29
2022-11-05T21:30:49.160Z,71.10
2022-11-05T21:33:55.158Z,71.04
2022-11-05T21:36:58.732Z,70.97
2022-11-05T21:40:00.515Z,70.96
2022-11-05T21:43:02.594Z,70.97
2022-11-05T21:46:05.359Z,71.42
2022-11-05T21:49:07.615Z,71.49
2022-11-05T21:52:30.215Z,71.71
2022-11-05T21:55:50.764Z,71.41
2022-11-05T21:59:18.457Z,71.59
2022-11-05T22:02:22.947Z,70.86
2022-11-05T22:05:24.900Z,70.58
2022-11-05T22:08:27.345Z,70.55
2022-11-05T22:11:29.225Z,70.29
2022-11-05T22:14:31.125Z,70.18
2022-11-05T22:17:33.024Z,69.69
2022-11-05T22:20:39.140Z,69.35
2022-11-05T22:23:41.099Z,69.29
2022-11-05T22:26:43.812Z,69.51
2022-11-05T22:29:46.270Z,69.75
2022-11-05T22:32:48.143Z,69.32
2022-11-05T22:35:49.965Z,69.59
2022-11-05T22:38:52.150Z,69.67
2022-11-05T22:41:56.410Z,69.42
2022-11-05T22:44:59.030Z,69.40
2022-11-05T22:48:06.376Z,69.67
2022-11-05T22:51:11.738Z,69.62
2022-11-05T22:54:13.944Z,69.77
2022-11-05T22:57:15.858Z,69.49
2022-11-05T23:00:18.028Z,69.46
2022-11-05T23:03:20.902Z,69.78
2022-11-05T23:06:44.059Z,69.89
2022-11-05T23:10:04.592Z,69.96
2022-11-05T23:13:08.010Z,69.50
2022-11-05T23:16:28.757Z,69.55
2022-11-05T23:19:49.442Z,69.56
2022-11-05T23:23:10.091Z,69.44
2022-11-05T23:26:30.796Z,69.58
2022-11-05T23:29:32.828Z,69.47
2022-11-05T23:32:35.463Z,69.40
2022-11-05T23:35:56.097Z,69.35
2022-11-05T23:38:57.888Z,69.91
2022-11-05T23:42:18.606Z,69.62
2022-11-05T23:45:39.310Z,69.97
2022-11-05T23:48:41.174Z,69.96
2022-11-05T23:51:43.220Z,70.14
2022-11-05T23:54:45.033Z,70.32
2022-11-05T23:57:47.034Z,70.30
